Time;durP1;ratioP1;P1;durP2;ratioP2;P2;SDS_P1;SDS_P2;PMS_P1;PMS_P2;Temp;Humidity;BMP_temperature;BMP_pressure;BME280_temperature;BME280_humidity;BME280_pressure;Samples;Min_cycle;Max_cycle;Signal;HPM_P1;HPM_P2
2022/08/12 00:44:14;;;;;;;;;;;;;;;;;;5057834;28;1465;-61
2022/08/12 00:47:06;;;;;;;;;;;;;;;;;;5058917;28;1469;-61
2022/08/12 00:49:31;;;;;;;;;;;;;;;;;;5059680;28;1908;-60
2022/08/12 00:52:10;;;;;;;;;;;;;;;;;;5063514;28;846;-61
2022/08/12 00:54:55;;;;;;;;;;;;;;;;;;5063541;28;1267;-61
2022/08/12 00:57:22;;;;;;;;;;;;;;;;;;5043911;28;1665;-61
2022/08/12 00:59:53;;;;;;;;;;;;;;;;;;5063301;28;1898;-61
2022/08/12 01:02:26;;;;;;;;;;;;;;;;;;5054287;28;1316;-61
2022/08/12 01:13:06;;;;;;;;;;;;;;;;;;5061351;28;1352;-61
2022/08/12 01:15:31;;;;;;;;;;;;;;;;;;5053903;28;1350;-60
2022/08/12 01:17:56;;;;;;;;;;;;;;;;;;5063147;28;1903;-60
2022/08/12 01:20:33;;;;;;;;;;;;;;;;;;5063202;28;1156;-60
2022/08/12 01:22:58;;;;;;;;;;;;;;;;;;5062829;28;1451;-61
2022/08/12 01:25:25;;;;;;;;;;;;;;;;;;5062698;28;1488;-61
2022/08/12 01:27:51;;;;;;;;;;;;;;;;;;5046980;28;1471;-61
2022/08/12 01:30:17;;;;;;;;;;;;;;;;;;5060394;28;1287;-61
2022/08/12 01:32:46;;;;;;;;;;;;;;;;;;5062888;28;998;-61
2022/08/12 01:35:12;;;;;;;;;;;;;;;;;;5062289;28;1542;-61
2022/08/12 01:37:51;;;;;;;;;;;;;;;;;;5062814;28;1897;-61
2022/08/12 01:40:18;;;;;;;;;;;;;;;;;;5062487;28;1496;-61
2022/08/12 01:42:45;;;;;;;;;;;;;;;;;;5061433;28;1571;-61
2022/08/12 01:45:11;;;;;;;;;;;;;;;;;;5061182;28;1464;-61
2022/08/12 01:47:41;;;;;;;;;;;;;;;;;;5054252;28;1423;-61
2022/08/12 01:50:19;;;;;;;;;;;;;;;;;;5047141;28;1120;-61
2022/08/12 01:52:54;;;;;;;;;;;;;;;;;;5044453;28;1607;-62
2022/08/12 01:55:21;;;;;;;;;;;;;;;;;;5052921;28;1602;-62
2022/08/12 01:57:48;;;;;;;;;;;;;;;;;;5061236;28;1961;-62
2022/08/12 02:00:14;;;;;;;;;;;;;;;;;;5061567;28;1219;-62
2022/08/12 02:02:47;;;;;;;;;;;;;;;;;;5061221;28;1504;-62
2022/08/12 02:11:25;;;;;;;;;;;;;;;;;;5031298;28;1037;-61
2022/08/12 02:14:05;;;;;;;;;;;;;;;;;;5057536;28;1575;-62
2022/08/12 02:16:33;;;;;;;;;;;;;;;;;;5055720;28;1556;-61
2022/08/12 02:19:01;;;;;;;;;;;;;;;;;;5058755;28;1905;-61
2022/08/12 02:21:45;;;;;;;;;;;;;;;;;;5061971;28;992;-62
2022/08/12 02:24:14;;;;;;;;;;;;;;;;;;5062209;28;1282;-62
2022/08/12 02:26:39;;;;;;;;;;;;;;;;;;5060700;28;1538;-62
2022/08/12 02:29:06;;;;;;;;;;;;;;;;;;5049765;28;1450;-62
2022/08/12 02:31:31;;;;;;;;;;;;;;;;;;5060445;28;1644;-61
2022/08/12 02:33:57;;;;;;;;;;;;;;;;;;5061615;28;1343;-61
2022/08/12 02:36:23;;;;;;;;;;;;;;;;;;5061431;28;1526;-61
2022/08/12 02:38:49;;;;;;;;;;;;;;;;;;5061716;28;1905;-62
2022/08/12 02:41:15;;;;;;;;;;;;;;;;;;5061584;28;1440;-62
2022/08/12 02:43:41;;;;;;;;;;;;;;;;;;5055218;28;1480;-61
2022/08/12 02:46:10;;;;;;;;;;;;;;;;;;5056792;28;1438;-62
2022/08/12 02:48:43;;;;;;;;;;;;;;;;;;5058623;28;1503;-61
2022/08/12 02:51:09;;;;;;;;;;;;;;;;;;5055447;28;1354;-62
2022/08/12 02:53:35;;;;;;;;;;;;;;;;;;5061171;28;1283;-61
2022/08/12 02:56:04;;;;;;;;;;;;;;;;;;5059994;28;1311;-61
2022/08/12 02:58:30;;;;;;;;;;;;;;;;;;5060085;28;1901;-61
2022/08/12 03:00:56;;;;;;;;;;;;;;;;;;5059158;28;1415;-62
2022/08/12 03:03:24;;;;;;;;;;;;;;;;;;5061567;28;1219;-62
2022/08/12 03:05:53;;;;;;;;;;;;;;;;;;5061027;28;1499;-62
2022/08/12 03:08:19;;;;;;;;;;;;;;;;;;5043755;28;1290;-62
2022/08/12 03:10:46;;;;;;;;;;;;;;;;;;5058736;28;1539;-61
2022/08/12 03:13:13;;;;;;;;;;;;;;;;;;5049233;28;1218;-62
2022/08/12 03:15:39;;;;;;;;;;;;;;;;;;5048998;28;1334;-62
2022/08/12 03:18:13;;;;;;;;;;;;;;;;;;5044549;28;1893;-62
2022/08/12 03:20:39;;;;;;;;;;;;;;;;;;5061282;28;842;-62
2022/08/12 03:23:07;;;;;;;;;;;;;;;;;;5050546;28;1044;-62
2022/08/12 03:25:34;;;;;;;;;;;;;;;;;;5041138;28;1188;-62
2022/08/12 03:27:59;;;;;;;;;;;;;;;;;;5055939;28;1476;-62
2022/08/12 03:30:26;;;;;;;;;;;;;;;;;;5059079;28;1610;-62
2022/08/12 03:32:53;;;;;;;;;;;;;;;;;;5060804;28;1323;-62
2022/08/12 03:35:24;;;;;;;;;;;;;;;;;;5058755;28;1468;-62
2022/08/12 03:37:49;;;;;;;;;;;;;;;;;;5059223;28;1898;-62
2022/08/12 03:41:34;;;;;;;;;;;;;;;;;;5060442;28;1124;-62
2022/08/12 04:02:13;;;;;;;;;;;;;;;;;;5058664;28;1517;-62
2022/08/12 04:04:43;;;;;;;;;;;;;;;;;;5062172;28;1990;-62
2022/08/12 04:07:09;;;;;;;;;;;;;;;;;;5059402;28;1424;-61
2022/08/12 04:09:37;;;;;;;;;;;;;;;;;;5059617;28;1854;-62
2022/08/12 04:14:46;;;;;;;;;;;;;;;;;;5059543;28;1358;-61
2022/08/12 04:17:13;;;;;;;;;;;;;;;;;;5060395;28;1172;-62
2022/08/12 04:19:38;;;;;;;;;;;;;;;;;;5058299;28;1902;-62
2022/08/12 04:22:03;;;;;;;;;;;;;;;;;;5059462;28;1314;-61
2022/08/12 04:24:30;;;;;;;;;;;;;;;;;;5055784;28;1301;-62
2022/08/12 04:26:55;;;;;;;;;;;;;;;;;;5059613;28;1397;-61
2022/08/12 04:29:22;;;;;;;;;;;;;;;;;;5059881;28;1266;-62
2022/08/12 04:31:48;;;;;;;;;;;;;;;;;;5058457;28;1212;-62
2022/08/12 04:34:13;;;;;;;;;;;;;;;;;;5053955;28;1338;-62
2022/08/12 04:36:39;;;;;;;;;;;;;;;;;;5057642;28;1341;-63
2022/08/12 04:39:06;;;;;;;;;;;;;;;;;;5059757;28;1975;-62
2022/08/12 04:41:31;;;;;;;;;;;;;;;;;;5058756;28;1430;-62
2022/08/12 04:43:56;;;;;;;;;;;;;;;;;;5059809;28;1144;-64
2022/08/12 04:46:25;;;;;;;;;;;;;;;;;;5057201;28;1377;-64
2022/08/12 04:48:51;;;;;;;;;;;;;;;;;;5058437;28;1359;-65
2022/08/12 04:51:17;;;;;;;;;;;;;;;;;;5060089;28;1614;-64
2022/08/12 04:53:43;;;;;;;;;;;;;;;;;;5062445;28;1296;-62
2022/08/12 04:56:11;;;;;;;;;;;;;;;;;;5059553;28;1403;-64
2022/08/12 04:58:37;;;;;;;;;;;;;;;;;;5063376;28;1917;-64
2022/08/12 05:01:03;;;;;;;;;;;;;;;;;;5061092;28;1479;-65
2022/08/12 05:03:28;;;;;;;;;;;;;;;;;;5055112;28;1336;-65
2022/08/12 05:05:56;;;;;;;;;;;;;;;;;;5062538;28;1424;-65
2022/08/12 05:08:22;;;;;;;;;;;;;;;;;;5061668;28;1293;-65
2022/08/12 05:10:48;;;;;;;;;;;;;;;;;;5058441;28;1196;-65
2022/08/12 05:13:40;;;;;;;;;;;;;;;;;;5062884;28;1232;-66
2022/08/12 05:16:06;;;;;;;;;;;;;;;;;;5059178;28;1601;-76
2022/08/12 05:18:36;;;;;;;;;;;;;;;;;;5055677;28;1898;-81
2022/08/12 05:21:01;;;;;;;;;;;;;;;;;;5053062;28;1318;-73
2022/08/12 05:23:27;;;;;;;;;;;;;;;;;;5052865;28;1468;-73
2022/08/12 05:25:55;;;;;;;;;;;;;;;;;;5062971;28;1183;-73
2022/08/12 05:28:21;;;;;;;;;;;;;;;;;;5063201;28;814;-73
2022/08/12 05:30:47;;;;;;;;;;;;;;;;;;5062754;28;806;-73
2022/08/12 05:33:14;;;;;;;;;;;;;;;;;;5063157;28;898;-74
2022/08/12 05:35:41;;;;;;;;;;;;;;;;;;5062676;28;1266;-73
2022/08/12 05:40:51;;;;;;;;;;;;;;;;;;5063313;28;660;-73
2022/08/12 05:43:16;;;;;;;;;;;;;;;;;;5062965;28;1004;-73
2022/08/12 05:45:42;;;;;;;;;;;;;;;;;;5062632;28;1293;-73
2022/08/12 05:48:07;;;;;;;;;;;;;;;;;;5062859;28;997;-73
2022/08/12 05:50:34;;;;;;;;;;;;;;;;;;5062660;28;1060;-73
2022/08/12 05:52:59;;;;;;;;;;;;;;;;;;5062827;28;897;-73
2022/08/12 05:55:24;;;;;;;;;;;;;;;;;;5062595;28;1192;-73
2022/08/12 05:57:54;;;;;;;;;;;;;;;;;;5044219;28;1898;-73
2022/08/12 06:00:20;;;;;;;;;;;;;;;;;;5062813;28;878;-73
2022/08/12 06:02:45;;;;;;;;;;;;;;;;;;5062431;28;831;-73
2022/08/12 06:05:11;;;;;;;;;;;;;;;;;;5044353;28;1298;-73
2022/08/12 06:07:44;;;;;;;;;;;;;;;;;;5062418;28;834;-73
2022/08/12 06:10:09;;;;;;;;;;;;;;;;;;5062242;28;830;-74
2022/08/12 06:12:34;;;;;;;;;;;;;;;;;;5062367;28;897;-73
2022/08/12 06:15:01;;;;;;;;;;;;;;;;;;5062170;28;1287;-73
2022/08/12 06:17:26;;;;;;;;;;;;;;;;;;5044386;28;938;-73
2022/08/12 06:19:51;;;;;;;;;;;;;;;;;;5062135;28;1890;-71
2022/08/12 06:22:16;;;;;;;;;;;;;;;;;;5062240;28;810;-74
2022/08/12 06:24:41;;;;;;;;;;;;;;;;;;5061854;28;1176;-74
2022/08/12 06:27:07;;;;;;;;;;;;;;;;;;5062166;28;1063;-74
2022/08/12 06:29:33;;;;;;;;;;;;;;;;;;5062049;28;803;-72
2022/08/12 06:31:58;;;;;;;;;;;;;;;;;;5062309;28;882;-72
2022/08/12 06:34:30;;;;;;;;;;;;;;;;;;5061746;28;1199;-73
2022/08/12 06:36:57;;;;;;;;;;;;;;;;;;5062163;28;905;-73
2022/08/12 06:39:23;;;;;;;;;;;;;;;;;;5061662;28;1959;-73
2022/08/12 06:44:32;;;;;;;;;;;;;;;;;;5061723;28;1223;-74
2022/08/12 06:46:57;;;;;;;;;;;;;;;;;;5043772;28;1649;-72
2022/08/12 06:49:22;;;;;;;;;;;;;;;;;;5061834;28;918;-72
2022/08/12 06:51:47;;;;;;;;;;;;;;;;;;5061761;28;853;-73
2022/08/12 06:54:12;;;;;;;;;;;;;;;;;;5061722;28;1208;-73
2022/08/12 06:56:38;;;;;;;;;;;;;;;;;;5061324;28;842;-74
2022/08/12 06:59:03;;;;;;;;;;;;;;;;;;5061725;28;1898;-73
2022/08/12 07:01:30;;;;;;;;;;;;;;;;;;5061499;28;826;-73
2022/08/12 07:03:55;;;;;;;;;;;;;;;;;;5061724;28;876;-72
2022/08/12 07:06:20;;;;;;;;;;;;;;;;;;5061303;28;1184;-73
2022/08/12 07:08:45;;;;;;;;;;;;;;;;;;5043312;28;1093;-73
2022/08/12 07:11:12;;;;;;;;;;;;;;;;;;5061192;28;795;-72
2022/08/12 07:13:44;;;;;;;;;;;;;;;;;;5042421;28;1081;-74
2022/08/12 07:16:12;;;;;;;;;;;;;;;;;;5061271;28;1181;-73
2022/08/12 07:18:38;;;;;;;;;;;;;;;;;;5061219;28;1898;-73
2022/08/12 07:21:04;;;;;;;;;;;;;;;;;;5061477;28;846;-73
2022/08/12 07:23:30;;;;;;;;;;;;;;;;;;5061198;28;921;-73
2022/08/12 07:25:56;;;;;;;;;;;;;;;;;;5061445;28;1266;-73
2022/08/12 07:28:22;;;;;;;;;;;;;;;;;;5061275;28;827;-72
2022/08/12 07:30:48;;;;;;;;;;;;;;;;;;5043172;28;961;-72
2022/08/12 07:33:15;;;;;;;;;;;;;;;;;;5061145;28;992;-73
2022/08/12 07:35:44;;;;;;;;;;;;;;;;;;5060992;28;1251;-73
2022/08/12 07:38:23;;;;;;;;;;;;;;;;;;5061210;28;1987;-72
2022/08/12 07:40:49;;;;;;;;;;;;;;;;;;5061029;28;886;-73
2022/08/12 07:43:14;;;;;;;;;;;;;;;;;;5061339;28;830;-72
2022/08/12 07:45:39;;;;;;;;;;;;;;;;;;5060821;28;1282;-72
2022/08/12 07:48:05;;;;;;;;;;;;;;;;;;5060792;28;1040;-72
2022/08/12 07:50:30;;;;;;;;;;;;;;;;;;5060775;28;817;-72
2022/08/12 07:52:55;;;;;;;;;;;;;;;;;;5060566;28;1012;-72
2022/08/12 07:55:20;;;;;;;;;;;;;;;;;;5042706;28;1446;-73
2022/08/12 07:57:51;;;;;;;;;;;;;;;;;;5060873;28;846;-73
2022/08/12 08:00:17;;;;;;;;;;;;;;;;;;5060754;28;818;-73
2022/08/12 08:02:42;;;;;;;;;;;;;;;;;;5060422;28;846;-73
2022/08/12 08:05:07;;;;;;;;;;;;;;;;;;5060467;28;1168;-72
2022/08/12 08:07:33;;;;;;;;;;;;;;;;;;5060648;28;1032;-72
2022/08/12 08:09:58;;;;;;;;;;;;;;;;;;5060585;28;854;-73
2022/08/12 08:15:09;;;;;;;;;;;;;;;;;;5060427;28;1203;-72
2022/08/12 08:17:36;;;;;;;;;;;;;;;;;;5060255;28;854;-73
2022/08/12 08:20:01;;;;;;;;;;;;;;;;;;5060235;28;1886;-72
2022/08/12 08:22:26;;;;;;;;;;;;;;;;;;5060530;28;1005;-73
2022/08/12 08:24:55;;;;;;;;;;;;;;;;;;5060730;28;1231;-73
2022/08/12 08:27:21;;;;;;;;;;;;;;;;;;5063391;28;928;-73
2022/08/12 08:29:46;;;;;;;;;;;;;;;;;;5045971;28;905;-73
2022/08/12 08:32:11;;;;;;;;;;;;;;;;;;5063909;28;905;-73
2022/08/12 08:34:37;;;;;;;;;;;;;;;;;;5063655;28;1188;-73
2022/08/12 08:37:02;;;;;;;;;;;;;;;;;;5064047;28;770;-73
2022/08/12 08:39:27;;;;;;;;;;;;;;;;;;5063619;28;1968;-72
2022/08/12 08:44:40;;;;;;;;;;;;;;;;;;5063507;28;1172;-72
2022/08/12 08:47:05;;;;;;;;;;;;;;;;;;5063654;28;834;-73
2022/08/12 08:49:31;;;;;;;;;;;;;;;;;;5063741;28;893;-73
2022/08/12 08:51:56;;;;;;;;;;;;;;;;;;5063842;28;827;-73
2022/08/12 08:54:23;;;;;;;;;;;;;;;;;;5045425;28;1390;-73
2022/08/12 08:56:49;;;;;;;;;;;;;;;;;;5063491;28;885;-73
2022/08/12 08:59:15;;;;;;;;;;;;;;;;;;5063474;28;1893;-73
2022/08/12 09:01:40;;;;;;;;;;;;;;;;;;5063386;28;973;-73
2022/08/12 09:04:07;;;;;;;;;;;;;;;;;;5063505;28;1004;-73
2022/08/12 09:06:32;;;;;;;;;;;;;;;;;;5062962;28;1266;-73
2022/08/12 09:08:57;;;;;;;;;;;;;;;;;;5063908;28;843;-73
2022/08/12 09:14:08;;;;;;;;;;;;;;;;;;5063502;28;628;-73
2022/08/12 09:16:34;;;;;;;;;;;;;;;;;;5062864;28;861;-73
2022/08/12 09:19:00;;;;;;;;;;;;;;;;;;5063202;28;1902;-73
2022/08/12 09:21:27;;;;;;;;;;;;;;;;;;5063106;28;862;-74
2022/08/12 09:23:57;;;;;;;;;;;;;;;;;;5063129;28;893;-73
2022/08/12 09:26:23;;;;;;;;;;;;;;;;;;5062701;28;1188;-73
2022/08/12 09:28:49;;;;;;;;;;;;;;;;;;5045142;28;1276;-74
2022/08/12 09:31:14;;;;;;;;;;;;;;;;;;5063145;28;898;-74
2022/08/12 09:33:39;;;;;;;;;;;;;;;;;;5063076;28;1040;-74
2022/08/12 09:36:06;;;;;;;;;;;;;;;;;;5062687;28;1274;-73
2022/08/12 09:38:32;;;;;;;;;;;;;;;;;;5062435;28;1890;-73
2022/08/12 09:40:57;;;;;;;;;;;;;;;;;;5062626;28;846;-73
2022/08/12 09:46:06;;;;;;;;;;;;;;;;;;5062622;28;1294;-74
2022/08/12 09:48:32;;;;;;;;;;;;;;;;;;5062926;28;889;-74
2022/08/12 09:50:58;;;;;;;;;;;;;;;;;;5062666;28;838;-72
2022/08/12 09:53:23;;;;;;;;;;;;;;;;;;5044957;28;1427;-72
2022/08/12 09:55:51;;;;;;;;;;;;;;;;;;5062320;28;1211;-72
2022/08/12 09:58:17;;;;;;;;;;;;;;;;;;5062618;28;1902;-72
2022/08/12 10:00:43;;;;;;;;;;;;;;;;;;5062331;28;1009;-74
2022/08/12 10:03:09;;;;;;;;;;;;;;;;;;5062633;28;863;-74
2022/08/12 10:05:44;;;;;;;;;;;;;;;;;;5062215;28;1255;-74
2022/08/12 10:08:10;;;;;;;;;;;;;;;;;;5062687;28;823;-73
2022/08/12 10:13:40;;;;;;;;;;;;;;;;;;5044214;28;2086;-73
2022/08/12 10:13:40;;;;;;;;;;;;;;;;;;5062430;28;820;-73
2022/08/12 10:16:06;;;;;;;;;;;;;;;;;;5062193;28;1314;-73
2022/08/12 10:18:32;;;;;;;;;;;;;;;;;;5062182;28;1878;-73
2022/08/12 10:20:58;;;;;;;;;;;;;;;;;;5062245;28;897;-73
2022/08/12 10:23:23;;;;;;;;;;;;;;;;;;5062327;28;865;-73
2022/08/12 10:31:20;;;;;;;;;;;;;;;;;;5062598;28;609;-73
2022/08/12 10:33:45;;;;;;;;;;;;;;;;;;5043941;28;981;-72
2022/08/12 10:36:11;;;;;;;;;;;;;;;;;;5043750;28;1208;-73
2022/08/12 10:38:36;;;;;;;;;;;;;;;;;;5061859;28;1965;-72
2022/08/12 10:43:45;;;;;;;;;;;;;;;;;;5061876;28;652;-73
2022/08/12 10:46:17;;;;;;;;;;;;;;;;;;5061832;28;1282;-73
2022/08/12 10:48:50;;;;;;;;;;;;;;;;;;5060644;28;993;-72
2022/08/12 10:51:17;;;;;;;;;;;;;;;;;;5061796;28;933;-73
2022/08/12 10:53:43;;;;;;;;;;;;;;;;;;5061565;28;855;-73
2022/08/12 10:56:10;;;;;;;;;;;;;;;;;;5061419;28;1286;-73
2022/08/12 10:58:35;;;;;;;;;;;;;;;;;;5061518;28;1981;-73
2022/08/12 11:01:04;;;;;;;;;;;;;;;;;;5061330;28;878;-73
2022/08/12 11:03:33;;;;;;;;;;;;;;;;;;5061627;28;877;-73
2022/08/12 11:05:58;;;;;;;;;;;;;;;;;;5061007;28;1283;-73
2022/08/12 11:08:24;;;;;;;;;;;;;;;;;;5061480;28;818;-73
2022/08/12 11:10:50;;;;;;;;;;;;;;;;;;5061246;28;814;-73
2022/08/12 11:13:15;;;;;;;;;;;;;;;;;;5061385;28;795;-73
2022/08/12 11:15:40;;;;;;;;;;;;;;;;;;5060958;28;1190;-73
2022/08/12 11:18:06;;;;;;;;;;;;;;;;;;5061336;28;1894;-73
2022/08/12 11:20:31;;;;;;;;;;;;;;;;;;5061268;28;854;-73
2022/08/12 11:23:00;;;;;;;;;;;;;;;;;;5043477;28;875;-74
2022/08/12 11:25:26;;;;;;;;;;;;;;;;;;5061057;28;1184;-74
2022/08/12 11:27:51;;;;;;;;;;;;;;;;;;5061248;28;862;-73
2022/08/12 11:30:16;;;;;;;;;;;;;;;;;;5061199;28;834;-72
2022/08/12 11:32:41;;;;;;;;;;;;;;;;;;5043149;28;1236;-73
2022/08/12 11:35:08;;;;;;;;;;;;;;;;;;5060848;28;1255;-74
2022/08/12 11:37:34;;;;;;;;;;;;;;;;;;5060987;28;785;-73
2022/08/12 11:39:59;;;;;;;;;;;;;;;;;;5061091;28;1897;-73
2022/08/12 11:42:25;;;;;;;;;;;;;;;;;;5060941;28;858;-74
2022/08/12 11:44:50;;;;;;;;;;;;;;;;;;5042875;28;1574;-74
2022/08/12 11:47:18;;;;;;;;;;;;;;;;;;5060963;28;996;-74
2022/08/12 11:49:43;;;;;;;;;;;;;;;;;;5043090;28;1081;-74
2022/08/12 11:52:08;;;;;;;;;;;;;;;;;;5061070;28;815;-74
2022/08/12 11:54:34;;;;;;;;;;;;;;;;;;5060555;28;1298;-74
2022/08/12 11:56:59;;;;;;;;;;;;;;;;;;5060924;28;961;-74
2022/08/12 11:59:25;;;;;;;;;;;;;;;;;;5060689;28;1968;-74
2022/08/12 12:01:50;;;;;;;;;;;;;;;;;;5064605;28;933;-74
2022/08/12 12:04:15;;;;;;;;;;;;;;;;;;5064259;28;1168;-74
2022/08/12 12:06:40;;;;;;;;;;;;;;;;;;5064123;28;933;-74
2022/08/12 12:09:05;;;;;;;;;;;;;;;;;;5064324;28;1052;-74
2022/08/12 12:11:31;;;;;;;;;;;;;;;;;;5064465;28;898;-73
2022/08/12 12:13:56;;;;;;;;;;;;;;;;;;5064391;28;898;-72
2022/08/12 12:16:21;;;;;;;;;;;;;;;;;;5063813;28;1239;-73
2022/08/12 12:18:46;;;;;;;;;;;;;;;;;;5064240;28;1893;-72
2022/08/12 12:21:11;;;;;;;;;;;;;;;;;;5064015;28;795;-74
2022/08/12 12:23:37;;;;;;;;;;;;;;;;;;5064151;28;930;-73
2022/08/12 12:26:05;;;;;;;;;;;;;;;;;;5063500;28;1192;-73
2022/08/12 12:28:30;;;;;;;;;;;;;;;;;;5064085;28;1051;-72
2022/08/12 12:30:56;;;;;;;;;;;;;;;;;;5063847;28;1001;-72
2022/08/12 12:33:21;;;;;;;;;;;;;;;;;;5063969;28;945;-72
2022/08/12 12:35:46;;;;;;;;;;;;;;;;;;5063930;28;1233;-73
2022/08/12 12:38:12;;;;;;;;;;;;;;;;;;5063874;28;1947;-73
2022/08/12 12:40:39;;;;;;;;;;;;;;;;;;5063683;28;914;-73
2022/08/12 12:43:05;;;;;;;;;;;;;;;;;;5063942;28;806;-73
2022/08/12 12:45:31;;;;;;;;;;;;;;;;;;5063458;28;1267;-73
2022/08/12 12:48:00;;;;;;;;;;;;;;;;;;5063483;28;850;-72
2022/08/12 12:50:27;;;;;;;;;;;;;;;;;;5063670;28;1009;-73
2022/08/12 12:52:53;;;;;;;;;;;;;;;;;;5063519;28;1354;-73
2022/08/12 12:55:18;;;;;;;;;;;;;;;;;;5063323;28;1200;-72
2022/08/12 12:57:44;;;;;;;;;;;;;;;;;;5063639;28;1000;-73
2022/08/12 13:00:14;;;;;;;;;;;;;;;;;;5063306;28;1898;-72
2022/08/12 13:02:39;;;;;;;;;;;;;;;;;;5063731;28;858;-72
2022/08/12 13:05:06;;;;;;;;;;;;;;;;;;5062994;28;1259;-73
2022/08/12 13:07:31;;;;;;;;;;;;;;;;;;5063372;28;1063;-72
2022/08/12 13:09:56;;;;;;;;;;;;;;;;;;5063187;28;993;-72
2022/08/12 13:12:21;;;;;;;;;;;;;;;;;;5062394;28;905;-72
2022/08/12 13:14:46;;;;;;;;;;;;;;;;;;5045028;28;1231;-72
2022/08/12 13:17:15;;;;;;;;;;;;;;;;;;5063332;28;834;-72
2022/08/12 13:19:40;;;;;;;;;;;;;;;;;;5063194;28;1965;-72
2022/08/12 13:22:18;;;;;;;;;;;;;;;;;;5063185;28;936;-72
2022/08/12 13:24:43;;;;;;;;;;;;;;;;;;5062884;28;1208;-72
2022/08/12 13:27:08;;;;;;;;;;;;;;;;;;5062912;28;894;-72
2022/08/12 13:29:35;;;;;;;;;;;;;;;;;;5063159;28;905;-72
2022/08/12 13:32:01;;;;;;;;;;;;;;;;;;5062890;28;834;-72
2022/08/12 13:34:26;;;;;;;;;;;;;;;;;;5062872;28;1195;-72
2022/08/12 13:36:51;;;;;;;;;;;;;;;;;;5062810;28;995;-72
2022/08/12 13:39:20;;;;;;;;;;;;;;;;;;5062933;28;1975;-72
2022/08/12 13:41:45;;;;;;;;;;;;;;;;;;5062744;28;874;-73
2022/08/12 13:44:11;;;;;;;;;;;;;;;;;;5062939;28;1271;-73
2022/08/12 13:46:39;;;;;;;;;;;;;;;;;;5062616;28;925;-73
2022/08/12 13:49:06;;;;;;;;;;;;;;;;;;5062701;28;867;-72
2022/08/12 13:51:31;;;;;;;;;;;;;;;;;;5062795;28;870;-72
2022/08/12 13:53:57;;;;;;;;;;;;;;;;;;5062613;28;811;-73
2022/08/12 13:56:23;;;;;;;;;;;;;;;;;;5062431;28;1267;-72
2022/08/12 13:58:49;;;;;;;;;;;;;;;;;;5062478;28;1962;-73
2022/08/12 14:01:16;;;;;;;;;;;;;;;;;;5062507;28;917;-73
2022/08/12 14:03:42;;;;;;;;;;;;;;;;;;5062482;28;928;-73
2022/08/12 14:06:07;;;;;;;;;;;;;;;;;;5062305;28;1180;-73
2022/08/12 14:08:32;;;;;;;;;;;;;;;;;;5062336;28;878;-73
2022/08/12 14:10:58;;;;;;;;;;;;;;;;;;5044462;28;1285;-73
2022/08/12 14:13:28;;;;;;;;;;;;;;;;;;5062372;28;842;-72
2022/08/12 14:15:54;;;;;;;;;;;;;;;;;;5061933;28;1251;-73
2022/08/12 14:18:24;;;;;;;;;;;;;;;;;;5044443;28;1965;-73
2022/08/12 14:20:50;;;;;;;;;;;;;;;;;;5062179;28;938;-73
2022/08/12 14:23:16;;;;;;;;;;;;;;;;;;5062247;28;906;-73
2022/08/12 14:25:45;;;;;;;;;;;;;;;;;;5061853;28;1243;-72
2022/08/12 14:28:11;;;;;;;;;;;;;;;;;;5062355;28;791;-72
2022/08/12 14:30:52;;;;;;;;;;;;;;;;;;5061923;28;826;-73
2022/08/12 14:33:18;;;;;;;;;;;;;;;;;;5062217;28;842;-72
2022/08/12 14:35:43;;;;;;;;;;;;;;;;;;5061645;28;1284;-73
2022/08/12 14:38:22;;;;;;;;;;;;;;;;;;5062156;28;1897;-72
2022/08/12 14:40:48;;;;;;;;;;;;;;;;;;5061740;28;917;-73
2022/08/12 14:43:13;;;;;;;;;;;;;;;;;;5061745;28;857;-73
2022/08/12 14:45:39;;;;;;;;;;;;;;;;;;5061723;28;1258;-73
2022/08/12 14:48:05;;;;;;;;;;;;;;;;;;5061880;28;877;-72
2022/08/12 14:50:30;;;;;;;;;;;;;;;;;;5061829;28;858;-73
2022/08/12 14:52:55;;;;;;;;;;;;;;;;;;5061625;28;834;-73
2022/08/12 14:55:20;;;;;;;;;;;;;;;;;;5061776;28;1164;-72
2022/08/12 14:57:49;;;;;;;;;;;;;;;;;;5043723;28;1257;-73
2022/08/12 15:03:00;;;;;;;;;;;;;;;;;;5061734;28;641;-73
2022/08/12 15:05:25;;;;;;;;;;;;;;;;;;5061397;28;1168;-72
2022/08/12 15:07:50;;;;;;;;;;;;;;;;;;5061680;28;759;-73
2022/08/12 15:10:19;;;;;;;;;;;;;;;;;;5061433;28;815;-72
2022/08/12 15:12:44;;;;;;;;;;;;;;;;;;5061709;28;826;-73
2022/08/12 15:15:09;;;;;;;;;;;;;;;;;;5061168;28;1270;-72
2022/08/12 15:17:35;;;;;;;;;;;;;;;;;;5061459;28;1008;-73
2022/08/12 15:20:01;;;;;;;;;;;;;;;;;;5061338;28;1901;-72
2022/08/12 15:22:26;;;;;;;;;;;;;;;;;;5061301;28;740;-71
2022/08/12 15:24:52;;;;;;;;;;;;;;;;;;5061056;28;1188;-72
2022/08/12 15:27:17;;;;;;;;;;;;;;;;;;5061338;28;822;-72
2022/08/12 15:29:42;;;;;;;;;;;;;;;;;;5061251;28;1060;-73
2022/08/12 15:32:09;;;;;;;;;;;;;;;;;;5061244;28;799;-72
2022/08/12 15:34:37;;;;;;;;;;;;;;;;;;5060502;28;1282;-72
2022/08/12 15:37:02;;;;;;;;;;;;;;;;;;5061094;28;847;-73
2022/08/12 15:39:28;;;;;;;;;;;;;;;;;;5061059;28;1906;-72
2022/08/12 15:41:53;;;;;;;;;;;;;;;;;;5060985;28;810;-73
2022/08/12 15:44:18;;;;;;;;;;;;;;;;;;5061239;28;1180;-72
2022/08/12 15:46:43;;;;;;;;;;;;;;;;;;5060787;28;759;-73
2022/08/12 15:49:09;;;;;;;;;;;;;;;;;;5061147;28;936;-72
2022/08/12 15:51:35;;;;;;;;;;;;;;;;;;5060779;28;873;-72
2022/08/12 15:54:06;;;;;;;;;;;;;;;;;;5060933;28;845;-73
2022/08/12 15:56:32;;;;;;;;;;;;;;;;;;5060676;28;1254;-73
2022/08/12 15:58:57;;;;;;;;;;;;;;;;;;5060983;28;1906;-73
2022/08/12 16:01:23;;;;;;;;;;;;;;;;;;5060966;28;933;-73
2022/08/12 16:03:48;;;;;;;;;;;;;;;;;;5060752;28;787;-72
2022/08/12 16:06:14;;;;;;;;;;;;;;;;;;5061775;28;1263;-72
2022/08/12 16:08:40;;;;;;;;;;;;;;;;;;5061921;28;980;-72
2022/08/12 16:11:06;;;;;;;;;;;;;;;;;;5061949;28;850;-72
2022/08/12 16:13:31;;;;;;;;;;;;;;;;;;5060604;28;909;-73
2022/08/12 16:16:01;;;;;;;;;;;;;;;;;;5060450;28;1258;-73
2022/08/12 16:18:26;;;;;;;;;;;;;;;;;;5060759;28;1968;-73
2022/08/12 16:20:52;;;;;;;;;;;;;;;;;;5060691;28;993;-72
2022/08/12 16:23:17;;;;;;;;;;;;;;;;;;5060745;28;787;-72
2022/08/12 16:25:42;;;;;;;;;;;;;;;;;;5060315;28;1172;-72
2022/08/12 16:28:08;;;;;;;;;;;;;;;;;;5060813;28;913;-72
2022/08/12 16:30:35;;;;;;;;;;;;;;;;;;5060551;28;877;-72
2022/08/12 16:33:08;;;;;;;;;;;;;;;;;;5060731;28;913;-72
2022/08/12 16:35:35;;;;;;;;;;;;;;;;;;5059956;28;1124;-72
2022/08/12 16:38:03;;;;;;;;;;;;;;;;;;5060845;28;1016;-72
2022/08/12 16:40:28;;;;;;;;;;;;;;;;;;5060453;28;1890;-73
2022/08/12 16:42:53;;;;;;;;;;;;;;;;;;5060359;28;880;-72
2022/08/12 16:45:18;;;;;;;;;;;;;;;;;;5059966;28;1274;-72
2022/08/12 16:47:44;;;;;;;;;;;;;;;;;;5062585;28;866;-73
2022/08/12 16:50:10;;;;;;;;;;;;;;;;;;5062984;28;1465;-72
2022/08/12 16:52:35;;;;;;;;;;;;;;;;;;5062234;28;787;-72
2022/08/12 16:55:09;;;;;;;;;;;;;;;;;;5062468;28;1211;-72
2022/08/12 16:57:35;;;;;;;;;;;;;;;;;;5063322;28;830;-72
2022/08/12 17:00:01;;;;;;;;;;;;;;;;;;5063755;28;1901;-72
2022/08/12 17:02:28;;;;;;;;;;;;;;;;;;5063451;28;877;-72
2022/08/12 17:04:53;;;;;;;;;;;;;;;;;;5067203;28;1270;-72
2022/08/12 17:07:19;;;;;;;;;;;;;;;;;;5050412;28;1158;-72
2022/08/12 17:09:46;;;;;;;;;;;;;;;;;;5068935;28;791;-72
2022/08/12 17:12:12;;;;;;;;;;;;;;;;;;5051333;28;1540;-73
2022/08/12 17:14:37;;;;;;;;;;;;;;;;;;5068490;28;1278;-73
2022/08/12 17:17:04;;;;;;;;;;;;;;;;;;5068919;28;865;-73
2022/08/12 17:19:29;;;;;;;;;;;;;;;;;;5069032;28;1889;-73
2022/08/12 17:21:55;;;;;;;;;;;;;;;;;;5069360;28;811;-73
2022/08/12 17:24:22;;;;;;;;;;;;;;;;;;5069491;28;1262;-73
2022/08/12 17:26:48;;;;;;;;;;;;;;;;;;5068665;28;799;-73
2022/08/12 17:29:14;;;;;;;;;;;;;;;;;;5064162;28;1212;-72
2022/08/12 17:31:43;;;;;;;;;;;;;;;;;;5063128;28;806;-72
2022/08/12 17:35:25;;;;;;;;;;;;;;;;;;5062914;28;874;-73
2022/08/12 17:36:57;;;;;;;;;;;;;;;;;;5062974;28;987;-73
2022/08/12 17:39:22;;;;;;;;;;;;;;;;;;5062926;28;1902;-73
2022/08/12 17:41:48;;;;;;;;;;;;;;;;;;5063029;28;807;-73
2022/08/12 17:44:13;;;;;;;;;;;;;;;;;;5062631;28;1271;-73
2022/08/12 17:46:38;;;;;;;;;;;;;;;;;;5062746;28;822;-73
2022/08/12 17:49:04;;;;;;;;;;;;;;;;;;5062611;28;963;-74
2022/08/12 17:51:33;;;;;;;;;;;;;;;;;;5062803;28;866;-73
2022/08/12 17:53:58;;;;;;;;;;;;;;;;;;5062718;28;822;-73
2022/08/12 17:56:29;;;;;;;;;;;;;;;;;;5062474;28;1180;-73
2022/08/12 17:58:55;;;;;;;;;;;;;;;;;;5062242;28;1953;-73
2022/08/12 18:01:20;;;;;;;;;;;;;;;;;;5062852;28;948;-73
2022/08/12 18:03:46;;;;;;;;;;;;;;;;;;5062776;28;865;-73
2022/08/12 18:06:11;;;;;;;;;;;;;;;;;;5062123;28;1208;-74
2022/08/12 18:08:42;;;;;;;;;;;;;;;;;;5062478;28;1032;-74
2022/08/12 18:13:51;;;;;;;;;;;;;;;;;;5062837;28;609;-73
2022/08/12 18:16:18;;;;;;;;;;;;;;;;;;5044182;28;1200;-73
2022/08/12 18:18:43;;;;;;;;;;;;;;;;;;5062214;28;1890;-73
2022/08/12 18:21:12;;;;;;;;;;;;;;;;;;5062305;28;945;-72
2022/08/12 18:23:40;;;;;;;;;;;;;;;;;;5062437;28;897;-73
2022/08/12 18:26:25;;;;;;;;;;;;;;;;;;5062025;28;1188;-73
2022/08/12 18:28:53;;;;;;;;;;;;;;;;;;5062338;28;834;-74
2022/08/12 18:31:22;;;;;;;;;;;;;;;;;;5062103;28;845;-72
2022/08/12 18:33:48;;;;;;;;;;;;;;;;;;5062102;28;927;-73
2022/08/12 18:36:13;;;;;;;;;;;;;;;;;;5043741;28;1236;-73
2022/08/12 18:38:39;;;;;;;;;;;;;;;;;;5062092;28;1897;-74
2022/08/12 18:43:49;;;;;;;;;;;;;;;;;;5062027;28;692;-73
2022/08/12 18:46:15;;;;;;;;;;;;;;;;;;5061508;28;1183;-73
2022/08/12 18:48:41;;;;;;;;;;;;;;;;;;5062000;28;930;-73
2022/08/12 18:51:11;;;;;;;;;;;;;;;;;;5062336;28;1084;-73
2022/08/12 18:53:37;;;;;;;;;;;;;;;;;;5061730;28;822;-73
2022/08/12 18:56:03;;;;;;;;;;;;;;;;;;5061488;28;1290;-73
2022/08/12 18:58:32;;;;;;;;;;;;;;;;;;5061717;28;1905;-72
2022/08/12 19:00:57;;;;;;;;;;;;;;;;;;5061759;28;850;-72